Time;durP1;ratioP1;P1;durP2;ratioP2;P2;SDS_P1;SDS_P2;PMS_P1;PMS_P2;Temp;Humidity;BMP_temperature;BMP_pressure;BME280_temperature;BME280_humidity;BME280_pressure;Samples;Min_cycle;Max_cycle;Signal;HPM_P1;HPM_P2
2022/02/21 00:02:04;;;;;;;14.65;6.38;;;;;;;5.56;100.00;99674.09;10381156;28;20034;-76
2022/02/21 00:07:05;;;;;;;22.95;6.05;;;;;;;5.62;100.00;99696.66;10380981;28;20470;-75
2022/02/21 00:12:06;;;;;;;17.95;4.78;;;;;;;5.44;100.00;99718.63;10381149;28;20037;-75
2022/02/21 00:17:06;;;;;;;14.23;4.55;;;;;;;5.32;100.00;99714.78;10380736;28;20045;-76
2022/02/21 00:22:06;;;;;;;14.13;4.25;;;;;;;5.22;100.00;99731.22;10379636;28;20076;-76
2022/02/21 00:27:07;;;;;;;24.38;4.03;;;;;;;5.37;100.00;99733.84;10379783;28;20042;-75
2022/02/21 00:32:08;;;;;;;20.45;5.63;;;;;;;5.33;100.00;99733.41;10379490;28;20038;-76
2022/02/21 00:37:08;;;;;;;13.73;3.88;;;;;;;5.23;100.00;99753.50;10380478;28;20459;-76
2022/02/21 00:42:09;;;;;;;13.30;4.15;;;;;;;5.25;100.00;99768.41;10380470;28;20061;-75
2022/02/21 00:47:09;;;;;;;17.33;4.53;;;;;;;5.31;100.00;99775.69;10380099;28;20045;-75
2022/02/21 00:52:09;;;;;;;27.92;5.30;;;;;;;5.29;100.00;99790.31;10380450;28;20370;-74
2022/02/21 00:57:10;;;;;;;11.02;4.25;;;;;;;5.31;100.00;99751.53;10380225;28;20034;-75
2022/02/21 01:02:10;;;;;;;23.33;5.93;;;;;;;5.25;98.96;99781.81;10378686;28;20038;-74
2022/02/21 01:07:11;;;;;;;11.40;3.95;;;;;;;5.20;99.12;99792.31;10377451;28;20038;-75
2022/02/21 01:12:11;;;;;;;16.13;4.72;;;;;;;5.24;100.00;99798.13;10378558;28;20041;-75
2022/02/21 01:17:11;;;;;;;14.82;5.38;;;;;;;5.27;100.00;99798.59;10378334;28;20529;-75
2022/02/21 01:22:12;;;;;;;17.75;5.65;;;;;;;5.17;99.54;99814.16;10379714;28;20056;-75
2022/02/21 01:27:14;;;;;;;17.10;4.72;;;;;;;5.21;100.00;99828.03;10378111;28;20042;-75
2022/02/21 01:32:14;;;;;;;15.95;4.72;;;;;;;5.08;100.00;99817.97;10377237;28;20046;-76
2022/02/21 01:37:14;;;;;;;28.88;4.95;;;;;;;4.98;100.00;99828.16;10377756;28;20120;-76
2022/02/21 01:42:15;;;;;;;7.20;4.43;;;;;;;4.96;97.82;99848.97;10376402;28;20058;-75
2022/02/21 01:47:19;;;;;;;19.17;4.32;;;;;;;4.90;96.32;99829.09;10376615;28;20485;-75
2022/02/21 01:52:19;;;;;;;13.38;5.65;;;;;;;4.98;97.46;99852.28;10376465;28;20351;-76
2022/02/21 01:57:20;;;;;;;13.73;5.20;;;;;;;4.95;98.08;99850.00;10377958;28;20037;-75
2022/02/21 02:02:20;;;;;;;15.45;4.60;;;;;;;5.04;98.58;99852.41;10377146;28;20037;-75
2022/02/21 02:07:20;;;;;;;12.63;3.90;;;;;;;5.10;97.01;99866.91;10376891;28;20042;-74
2022/02/21 02:12:21;;;;;;;9.10;4.22;;;;;;;5.19;98.67;99848.84;10376387;28;20034;-74
2022/02/21 02:17:21;;;;;;;11.70;4.85;;;;;;;5.13;93.35;99839.69;10375726;28;20050;-74
2022/02/21 02:22:22;;;;;;;9.40;3.50;;;;;;;5.12;95.10;99838.03;10358578;28;20098;-75
2022/02/21 02:27:23;;;;;;;23.33;4.90;;;;;;;5.21;98.43;99863.75;10375426;28;20038;-74
2022/02/21 02:32:23;;;;;;;7.63;4.13;;;;;;;5.15;95.81;99861.00;10343274;28;20041;-75
2022/02/21 02:37:24;;;;;;;31.23;5.22;;;;;;;5.19;97.71;99857.72;10376794;28;20518;-74
2022/02/21 02:42:25;;;;;;;14.40;3.83;;;;;;;5.21;96.47;99847.66;10375465;28;20469;-74
2022/02/21 02:47:25;;;;;;;15.93;6.07;;;;;;;5.21;95.42;99858.38;10374856;28;20044;-74
2022/02/21 02:52:25;;;;;;;21.08;5.63;;;;;;;5.20;96.87;99871.97;10375272;28;20050;-75
2022/02/21 02:57:26;;;;;;;19.80;5.38;;;;;;;5.18;97.28;99882.09;10375399;28;20038;-75
2022/02/21 03:02:26;;;;;;;22.88;5.60;;;;;;;5.17;97.44;99886.63;10374516;28;20037;-75
2022/02/21 03:07:27;;;;;;;28.95;5.80;;;;;;;5.18;96.85;99879.41;10378250;28;20033;-75
2022/02/21 03:12:27;;;;;;;10.18;4.78;;;;;;;4.98;95.39;99863.03;10375950;28;20037;-74
2022/02/21 03:17:28;;;;;;;25.00;3.97;;;;;;;5.01;95.18;99874.25;10375198;28;20469;-74
2022/02/21 03:22:28;;;;;;;12.40;4.80;;;;;;;4.90;94.71;99886.25;10374389;28;20026;-75
2022/02/21 03:27:29;;;;;;;12.10;4.63;;;;;;;4.78;96.10;99890.41;10375597;28;20093;-75
2022/02/21 03:32:29;;;;;;;14.57;5.22;;;;;;;4.62;95.02;99869.97;10374914;28;20034;-74
2022/02/21 03:37:30;;;;;;;19.15;5.28;;;;;;;4.71;93.52;99886.81;10374508;28;20041;-75
2022/02/21 03:42:31;;;;;;;13.40;3.60;;;;;;;4.78;93.97;99874.31;10373287;28;20077;-74
2022/02/21 03:47:32;;;;;;;8.27;4.68;;;;;;;4.81;95.05;99895.41;10375400;28;20038;-74
2022/02/21 03:52:32;;;;;;;16.80;5.22;;;;;;;4.86;97.48;99878.78;10377915;28;20029;-73
2022/02/21 03:57:33;;;;;;;20.45;6.53;;;;;;;4.84;97.21;99857.50;10383214;28;20041;-74
2022/02/21 04:02:33;;;;;;;11.07;4.30;;;;;;;4.60;94.66;99860.47;10382588;28;20040;-73
2022/02/21 04:07:34;;;;;;;26.65;4.18;;;;;;;4.48;96.19;99862.75;10380520;28;20524;-73
2022/02/21 04:12:34;;;;;;;14.45;3.60;;;;;;;4.50;97.31;99881.34;10380809;28;20040;-73
2022/02/21 04:17:44;;;;;;;6.72;4.30;;;;;;;4.60;97.74;99887.28;10380606;28;20482;-73
2022/02/21 04:22:45;;;;;;;12.52;3.88;;;;;;;4.60;97.35;99889.97;10380204;28;20038;-72
2022/02/21 04:27:47;;;;;;;14.13;5.45;;;;;;;4.60;98.08;99889.97;10380172;28;20469;-71
2022/02/21 04:32:47;;;;;;;10.27;4.88;;;;;;;4.66;98.87;99870.47;10380544;28;20100;-72
2022/02/21 04:37:48;;;;;;;19.25;5.45;;;;;;;4.71;99.26;99877.94;10379693;28;20128;-73
2022/02/21 04:42:50;;;;;;;13.70;3.50;;;;;;;4.78;97.14;99874.31;10378748;28;20390;-72
2022/02/21 04:47:51;;;;;;;8.73;5.20;;;;;;;4.81;96.90;99887.38;10378795;28;20034;-73
2022/02/21 04:52:51;;;;;;;21.30;7.38;;;;;;;4.66;97.93;99868.59;10376982;28;20034;-72
2022/02/21 04:57:52;;;;;;;10.27;3.88;;;;;;;4.44;98.54;99861.47;10379341;28;20421;-72
2022/02/21 05:02:52;;;;;;;19.48;4.85;;;;;;;4.36;97.07;99859.69;10379160;28;20058;-73
2022/02/21 05:07:52;;;;;;;11.88;5.28;;;;;;;4.34;97.49;99840.31;10377142;28;20436;-71
2022/02/21 05:12:53;;;;;;;14.45;4.88;;;;;;;4.26;98.42;99826.16;10378851;28;20227;-72
2022/02/21 05:17:53;;;;;;;25.95;5.07;;;;;;;4.20;97.89;99823.16;10376126;28;20224;-71
2022/02/21 05:22:54;;;;;;;12.57;4.28;;;;;;;4.24;97.71;99820.94;10377857;28;20037;-71
2022/02/21 05:27:54;;;;;;;22.65;4.95;;;;;;;4.31;99.63;99829.94;10377645;28;20037;-72
2022/02/21 05:32:55;;;;;;;19.35;4.97;;;;;;;4.33;98.35;99819.03;10377910;28;20514;-71
2022/02/21 05:37:55;;;;;;;8.10;4.65;;;;;;;4.34;96.91;99812.63;10378979;28;20037;-75
2022/02/21 05:42:55;;;;;;;11.93;4.65;;;;;;;4.36;98.30;99810.63;10376925;28;20497;-76
2022/02/21 05:47:56;;;;;;;11.65;3.90;;;;;;;4.30;99.31;99801.47;10376748;28;20037;-71
2022/02/21 05:52:56;;;;;;;16.08;4.25;;;;;;;4.21;98.28;99791.84;10376626;28;20464;-71
2022/02/21 05:57:57;;;;;;;17.92;4.53;;;;;;;4.19;98.55;99809.97;10376914;28;20048;-72
2022/02/21 06:02:58;;;;;;;13.80;5.50;;;;;;;4.19;98.60;99791.22;10375021;28;20476;-75
2022/02/21 06:07:58;;;;;;;23.50;6.32;;;;;;;4.20;99.41;99795.53;10377347;28;20033;-72
2022/02/21 06:12:58;;;;;;;20.77;5.18;;;;;;;4.10;97.69;99790.44;10375859;28;20034;-73
2022/02/21 06:17:59;;;;;;;16.25;6.05;;;;;;;4.13;98.39;99794.63;10375579;28;20037;-73
2022/02/21 06:22:59;;;;;;;22.88;6.25;;;;;;;4.15;98.86;99787.25;10375333;28;20085;-73
2022/02/21 06:28:00;;;;;;;19.23;5.65;;;;;;;4.14;97.59;99790.91;10375225;28;20133;-72
2022/02/21 06:33:00;;;;;;;13.38;3.67;;;;;;;4.21;98.99;99789.16;10375225;28;20088;-72
2022/02/21 06:38:04;;;;;;;14.82;4.68;;;;;;;4.30;99.92;99790.75;10375983;28;20033;-72
2022/02/21 06:43:04;;;;;;;14.10;3.80;;;;;;;4.35;99.18;99780.31;10374103;28;20053;-73
2022/02/21 06:48:05;;;;;;;28.40;6.85;;;;;;;4.37;98.79;99775.59;10376182;28;20057;-73
2022/02/21 06:53:05;;;;;;;15.15;3.88;;;;;;;4.48;100.00;99763.56;10374252;28;20461;-73
2022/02/21 06:58:06;;;;;;;11.88;5.15;;;;;;;4.61;98.72;99758.38;10375019;28;20073;-72
2022/02/21 07:03:06;;;;;;;15.02;4.50;;;;;;;4.79;98.95;99763.38;10373837;28;20432;-73
2022/02/21 07:08:07;;;;;;;15.57;4.80;;;;;;;4.91;97.76;99747.59;10374005;28;20045;-74
2022/02/21 07:13:07;;;;;;;15.50;5.68;;;;;;;5.16;99.20;99737.34;10356696;28;20033;-71
2022/02/21 07:18:10;;;;;;;13.82;4.82;;;;;;;5.36;95.45;99733.00;10374858;28;20037;-74
2022/02/21 07:23:11;;;;;;;27.33;6.00;;;;;;;5.75;96.04;99712.88;10373546;28;20040;-72
2022/02/21 07:28:12;;;;;;;15.55;5.38;;;;;;;6.28;96.03;99734.75;10373590;28;20042;-72
2022/02/21 07:33:12;;;;;;;7.13;4.53;;;;;;;6.00;94.41;99694.50;10378996;28;20049;-72
2022/02/21 07:38:13;;;;;;;11.50;4.82;;;;;;;5.89;94.33;99719.16;10381302;28;20171;-72
2022/02/21 07:43:13;;;;;;;12.93;6.45;;;;;;;5.79;97.64;99707.94;10379779;28;20053;-72
2022/02/21 07:48:13;;;;;;;19.33;8.00;;;;;;;5.76;99.94;99706.47;10380466;28;20080;-72
2022/02/21 07:53:14;;;;;;;10.07;5.47;;;;;;;5.55;99.17;99690.41;10381766;28;20351;-73
2022/02/21 07:58:14;;;;;;;9.55;4.20;;;;;;;5.28;100.00;99676.75;10380623;28;20045;-73
2022/02/21 08:03:15;;;;;;;33.10;6.82;;;;;;;5.15;100.00;99665.91;10379788;28;20026;-72
2022/02/21 08:08:15;;;;;;;13.68;6.60;;;;;;;4.92;100.00;99663.44;10379168;28;20037;-72
2022/02/21 08:13:15;;;;;;;10.57;4.97;;;;;;;4.78;100.00;99651.72;10380053;28;20041;-72
2022/02/21 08:18:16;;;;;;;19.00;7.15;;;;;;;4.65;100.00;99630.13;10378858;28;20037;-72
2022/02/21 08:23:16;;;;;;;24.45;6.90;;;;;;;4.72;100.00;99619.47;10379690;28;20120;-72
2022/02/21 08:28:17;;;;;;;21.90;6.55;;;;;;;4.63;100.00;99618.78;10362806;28;20033;-73
2022/02/21 08:33:17;;;;;;;10.20;5.53;;;;;;;4.71;100.00;99591.00;10378485;28;20038;-74
2022/02/21 08:38:17;;;;;;;33.20;9.77;;;;;;;4.81;100.00;99588.81;10380187;28;20041;-73
2022/02/21 08:43:18;;;;;;;34.28;7.55;;;;;;;4.92;100.00;99606.28;10377855;28;20057;-73
2022/02/21 08:48:18;;;;;;;28.63;8.05;;;;;;;4.99;100.00;99580.34;10378517;28;20052;-74
2022/02/21 08:53:19;;;;;;;32.80;9.63;;;;;;;5.09;100.00;99572.78;10378276;28;20030;-73
2022/02/21 08:58:19;;;;;;;23.50;8.10;;;;;;;5.20;100.00;99574.94;10378600;28;20049;-73
2022/02/21 09:03:19;;;;;;;42.10;8.90;;;;;;;5.26;100.00;99581.34;10378325;28;20033;-73
2022/02/21 09:08:20;;;;;;;10.38;7.20;;;;;;;5.27;100.00;99558.88;10379704;28;20025;-74
2022/02/21 09:13:20;;;;;;;37.53;8.93;;;;;;;5.35;100.00;99570.25;10376718;28;20073;-73
2022/02/21 09:18:21;;;;;;;29.05;8.38;;;;;;;5.34;100.00;99562.44;10361971;28;20133;-73
2022/02/21 09:23:22;;;;;;;33.20;8.93;;;;;;;5.30;100.00;99548.56;10378359;28;20359;-75
2022/02/21 09:28:22;;;;;;;38.35;7.95;;;;;;;5.22;100.00;99561.31;10377773;28;20370;-74
2022/02/21 09:33:23;;;;;;;20.98;6.57;;;;;;;5.18;100.00;99547.44;10376065;28;20037;-76
2022/02/21 09:38:23;;;;;;;21.27;6.93;;;;;;;5.12;100.00;99550.91;10376315;28;20033;-75
2022/02/21 09:43:27;;;;;;;22.80;7.60;;;;;;;5.18;100.00;99560.03;10376173;28;20154;-75
2022/02/21 09:48:28;;;;;;;23.88;7.45;;;;;;;5.19;100.00;99543.72;10374840;28;20113;-75
2022/02/21 09:53:33;;;;;;;37.80;8.52;;;;;;;5.31;100.00;99546.72;10376225;28;20061;-75
2022/02/21 09:58:34;;;;;;;21.83;8.18;;;;;;;5.52;100.00;99502.81;10375158;28;20407;-76
2022/02/21 10:03:37;;;;;;;28.60;7.97;;;;;;;5.70;100.00;99502.31;10376083;28;20049;-75
2022/02/21 10:08:50;;;;;;;25.60;8.00;;;;;;;5.78;100.00;99537.06;10374628;28;20527;-74
2022/02/21 10:14:17;;;;;;;22.73;6.63;;;;;;;5.69;100.00;99525.66;10374460;28;20458;-75
2022/02/21 10:19:29;;;;;;;27.20;8.55;;;;;;;5.80;100.00;99530.44;10369972;28;20046;-75
2022/02/21 10:24:36;;;;;;;36.85;7.20;;;;;;;5.84;100.00;99555.06;10375275;28;20367;-75
2022/02/21 10:30:00;;;;;;;15.77;7.93;;;;;;;5.95;100.00;99540.25;10375696;28;20121;-76
2022/02/21 10:35:28;;;;;;;24.52;6.28;;;;;;;6.03;100.00;99540.06;10375156;28;20040;-76
2022/02/21 10:40:38;;;;;;;31.75;9.88;;;;;;;6.12;100.00;99554.97;10374799;28;20081;-76
2022/02/21 10:45:38;;;;;;;21.35;8.57;;;;;;;6.05;100.00;99564.88;10376517;28;20061;-75
2022/02/21 10:51:02;;;;;;;26.63;8.57;;;;;;;6.12;100.00;99568.41;10341355;28;20029;-75
2022/02/21 10:56:02;;;;;;;35.42;9.57;;;;;;;6.22;100.00;99558.16;10374752;28;20075;-75
2022/02/21 11:01:03;;;;;;;20.73;9.05;;;;;;;6.38;100.00;99581.16;10375606;28;20133;-78
2022/02/21 11:06:05;;;;;;;17.70;6.50;;;;;;;6.47;100.00;99579.06;10373771;28;20038;-75
2022/02/21 11:11:06;;;;;;;36.72;9.82;;;;;;;6.63;100.00;99577.88;10372906;28;20508;-76
2022/02/21 11:16:07;;;;;;;30.45;7.22;;;;;;;6.77;100.00;99589.50;10374374;28;20044;-76
2022/02/21 11:21:08;;;;;;;26.75;7.32;;;;;;;6.86;100.00;99602.56;10373177;28;20030;-75
2022/02/21 11:26:17;;;;;;;24.35;9.30;;;;;;;6.94;100.00;99596.13;10372503;28;20109;-75
2022/02/21 11:31:34;;;;;;;23.13;8.30;;;;;;;7.05;100.00;99594.69;10372803;28;20036;-75
2022/02/21 11:36:34;;;;;;;26.63;9.32;;;;;;;7.15;100.00;99625.56;10357653;28;20043;-76
2022/02/21 11:41:35;;;;;;;29.35;6.97;;;;;;;7.23;100.00;99619.13;10355831;28;20050;-75
2022/02/21 11:46:35;;;;;;;26.63;8.85;;;;;;;7.49;100.00;99637.13;10373484;28;20124;-75
2022/02/21 11:51:37;;;;;;;32.42;8.63;;;;;;;7.42;100.00;99630.94;10372388;28;20030;-77
2022/02/21 12:01:59;;;;;;;30.55;7.32;;;;;;;7.51;100.00;99661.19;10373264;28;20029;-76
2022/02/21 12:06:59;;;;;;;30.63;7.63;;;;;;;7.25;100.00;99719.38;10371876;28;20108;-77
2022/02/21 12:12:22;;;;;;;19.48;8.80;;;;;;;7.05;100.00;99740.88;10373450;28;20030;-74
2022/02/21 12:17:23;;;;;;;26.17;8.85;;;;;;;7.26;100.00;99709.44;10373638;28;20473;-77
2022/02/21 12:22:26;;;;;;;27.00;6.43;;;;;;;7.48;100.00;99754.00;10381045;28;20155;-77
2022/02/21 12:27:26;;;;;;;40.10;8.18;;;;;;;7.39;100.00;99763.31;10379427;28;20038;-75
2022/02/21 12:32:27;;;;;;;29.42;6.35;;;;;;;7.77;100.00;99784.28;10379426;28;20033;-77
2022/02/21 12:37:34;;;;;;;27.75;7.97;;;;;;;7.70;100.00;99797.75;10378893;28;20505;-77
2022/02/21 12:42:34;;;;;;;;;;;;;;;7.54;100.00;99801.69;10378236;28;20050;-76
2022/02/21 12:47:34;;;;;;;17.00;7.72;;;;;;;7.64;100.00;99809.34;10379029;28;19917;-77
2022/02/21 12:52:35;;;;;;;14.05;7.40;;;;;;;7.63;100.00;99869.69;10378236;28;20445;-76
2022/02/21 12:57:40;;;;;;;19.35;7.88;;;;;;;7.80;100.00;99887.13;10378174;28;20108;-76
2022/02/21 13:02:40;;;;;;;21.58;6.55;;;;;;;8.20;100.00;99902.50;10378793;28;20128;-76
2022/02/21 13:07:41;;;;;;;22.13;6.95;;;;;;;8.05;100.00;99944.00;10377124;28;20236;-77
2022/02/21 13:12:41;;;;;;;25.67;8.07;;;;;;;8.16;100.00;99967.63;10378589;28;20034;-76
2022/02/21 13:17:42;;;;;;;32.85;8.90;;;;;;;8.44;100.00;99987.44;10378858;28;20121;-76
2022/02/21 13:22:43;;;;;;;18.58;5.50;;;;;;;8.72;100.00;100003.44;10378033;28;20124;-77
2022/02/21 13:27:43;;;;;;;16.50;5.68;;;;;;;8.55;100.00;100062.38;10377401;28;20034;-76
2022/02/21 13:32:44;;;;;;;20.48;4.93;;;;;;;8.74;100.00;100068.84;10379772;28;20077;-75
2022/02/21 13:37:46;;;;;;;16.40;5.47;;;;;;;8.88;100.00;100112.91;10361914;28;20374;-75
2022/02/21 13:42:54;;;;;;;20.45;6.57;;;;;;;8.82;100.00;100134.25;10376006;28;20050;-77
2022/02/21 13:48:11;;;;;;;14.18;4.93;;;;;;;9.52;100.00;100156.34;10376643;28;20040;-75
2022/02/21 13:53:31;;;;;;;10.05;3.72;;;;;;;9.85;99.25;100176.25;10375982;28;20129;-76
2022/02/21 13:58:43;;;;;;;15.63;5.38;;;;;;;9.03;99.80;100210.72;10377478;28;20057;-77
2022/02/21 14:03:44;;;;;;;20.00;5.10;;;;;;;8.78;100.00;100242.88;10375387;28;20037;-75
2022/02/21 14:08:52;;;;;;;21.52;4.93;;;;;;;8.49;100.00;100266.41;10376503;28;20370;-77
2022/02/21 14:13:52;;;;;;;13.75;3.78;;;;;;;8.43;100.00;100285.25;10374097;28;20346;-76
2022/02/21 14:18:52;;;;;;;14.45;2.95;;;;;;;8.18;100.00;100323.44;10357842;28;20041;-76
2022/02/21 14:23:53;;;;;;;9.73;4.22;;;;;;;7.91;100.00;100344.81;10374599;28;20509;-76
2022/02/21 14:28:53;;;;;;;16.13;5.72;;;;;;;8.02;100.00;100375.78;10376585;28;20050;-75
2022/02/21 14:33:53;;;;;;;17.38;4.35;;;;;;;8.04;100.00;100389.94;10375268;28;20168;-76
2022/02/21 14:38:54;;;;;;;21.13;5.85;;;;;;;8.28;100.00;100410.25;10374938;28;20412;-76
2022/02/21 14:43:54;;;;;;;10.10;3.78;;;;;;;8.29;100.00;100425.41;10374884;28;20061;-76
2022/02/21 14:48:55;;;;;;;15.25;4.47;;;;;;;8.45;100.00;100448.59;10374908;28;20132;-77
2022/02/21 14:53:55;;;;;;;24.70;7.28;;;;;;;8.47;100.00;100470.84;10374738;28;20030;-77
2022/02/21 14:59:00;;;;;;;27.20;7.70;;;;;;;8.40;100.00;100477.22;10372678;28;20029;-78
2022/02/21 15:04:02;;;;;;;10.88;6.45;;;;;;;8.56;100.00;100496.66;10372746;28;20500;-77
2022/02/21 15:09:02;;;;;;;20.17;5.90;;;;;;;8.24;100.00;100513.34;10373460;28;20084;-77
2022/02/21 15:14:05;;;;;;;13.32;4.95;;;;;;;8.19;100.00;100526.56;10373079;28;20533;-77
2022/02/21 15:19:06;;;;;;;14.02;4.30;;;;;;;8.00;100.00;100533.41;10374256;28;20034;-78
2022/02/21 15:24:08;;;;;;;16.75;5.43;;;;;;;7.88;100.00;100565.41;10372960;28;20036;-77
2022/02/21 15:29:08;;;;;;;19.67;7.20;;;;;;;8.01;100.00;100580.91;10356670;28;20038;-77
2022/02/21 15:34:08;;;;;;;29.63;7.07;;;;;;;8.36;100.00;100598.16;10373736;28;20041;-76
2022/02/21 15:39:11;;;;;;;31.27;7.85;;;;;;;8.09;100.00;100611.31;10374841;28;20123;-76
2022/02/21 15:44:15;;;;;;;21.63;7.60;;;;;;;7.83;100.00;100641.44;10371832;28;20054;-76
2022/02/21 15:49:17;;;;;;;19.20;8.45;;;;;;;7.64;100.00;100659.00;10371973;28;20169;-76
2022/02/21 15:54:17;;;;;;;19.08;6.55;;;;;;;7.44;100.00;100682.13;10378538;28;20034;-76
2022/02/21 15:59:18;;;;;;;29.38;6.50;;;;;;;7.45;100.00;100699.94;10381017;28;20033;-76
2022/02/21 16:04:18;;;;;;;20.95;6.00;;;;;;;7.60;100.00;100711.59;10379452;28;20026;-74
2022/02/21 16:09:19;;;;;;;27.20;7.00;;;;;;;7.53;100.00;100734.91;10380655;28;20120;-74
2022/02/21 16:14:19;;;;;;;23.23;7.13;;;;;;;7.37;100.00;100753.88;10362471;28;20038;-74
2022/02/21 16:19:20;;;;;;;28.30;7.40;;;;;;;7.35;100.00;100774.78;10380675;28;20072;-74
2022/02/21 16:24:20;;;;;;;22.70;5.45;;;;;;;7.31;100.00;100782.41;10380446;28;20081;-75
2022/02/21 16:29:21;;;;;;;35.47;8.00;;;;;;;7.38;100.00;100794.13;10378775;28;20409;-74
2022/02/21 16:34:22;;;;;;;18.38;6.03;;;;;;;7.55;100.00;100813.69;10378230;28;20168;-75
2022/02/21 16:39:22;;;;;;;21.27;7.10;;;;;;;7.64;100.00;100825.28;10378742;28;20034;-75
2022/02/21 16:44:24;;;;;;;53.40;9.00;;;;;;;7.67;100.00;100828.44;10379977;28;20053;-73
2022/02/21 16:49:25;;;;;;;18.70;6.15;;;;;;;7.64;100.00;100836.88;10379157;28;20141;-75
2022/02/21 16:54:27;;;;;;;39.63;7.20;;;;;;;7.62;100.00;100862.31;10379131;28;20038;-74
2022/02/21 16:59:27;;;;;;;28.67;8.85;;;;;;;7.63;100.00;100891.81;10378756;28;20165;-75
2022/02/21 17:04:28;;;;;;;21.02;5.82;;;;;;;7.65;100.00;100907.78;10376783;28;20026;-75
2022/02/21 17:09:28;;;;;;;29.05;7.18;;;;;;;7.65;100.00;100930.19;10377793;28;20042;-74
2022/02/21 17:14:30;;;;;;;28.77;7.55;;;;;;;7.66;100.00;100941.81;10378227;28;20425;-73
2022/02/21 17:19:31;;;;;;;27.25;8.48;;;;;;;7.67;100.00;100940.81;10378710;28;20121;-74
2022/02/21 17:24:31;;;;;;;34.58;7.88;;;;;;;7.61;100.00;100963.91;10377459;28;20375;-74
2022/02/21 17:29:32;;;;;;;29.48;8.02;;;;;;;7.65;100.00;100975.16;10377503;28;20413;-74
2022/02/21 17:34:32;;;;;;;16.02;7.07;;;;;;;7.71;100.00;100981.72;10375736;28;20061;-74
2022/02/21 17:39:33;;;;;;;25.63;6.43;;;;;;;7.65;100.00;101011.03;10377055;28;20057;-75
2022/02/21 17:44:33;;;;;;;37.53;5.85;;;;;;;7.68;100.00;101010.69;10378003;28;20062;-74
2022/02/21 17:49:33;;;;;;;15.05;6.07;;;;;;;7.69;100.00;101025.88;10378062;28;20034;-74
2022/02/21 17:54:34;;;;;;;36.55;5.40;;;;;;;7.71;100.00;101035.63;10376519;28;20481;-74
2022/02/21 17:59:34;;;;;;;17.15;4.95;;;;;;;7.50;100.00;101053.22;10376310;28;20046;-73
2022/02/21 18:04:35;;;;;;;26.08;5.93;;;;;;;7.39;100.00;101077.84;10376348;28;20057;-75
2022/02/21 18:09:35;;;;;;;14.52;6.40;;;;;;;7.58;100.00;101093.63;10377030;28;20433;-74
2022/02/21 18:14:36;;;;;;;26.65;7.00;;;;;;;7.41;100.00;101094.69;10341987;28;20034;-74
2022/02/21 18:19:36;;;;;;;24.23;6.43;;;;;;;7.16;100.00;101116.25;10374712;28;20040;-73
2022/02/21 18:24:37;;;;;;;25.45;5.75;;;;;;;6.98;100.00;101126.38;10376097;28;20034;-74
2022/02/21 18:29:38;;;;;;;15.50;5.70;;;;;;;7.14;100.00;101137.13;10358102;28;20430;-73
2022/02/21 18:34:39;;;;;;;34.97;6.40;;;;;;;7.29;100.00;101142.69;10374599;28;20061;-73
2022/02/21 18:39:40;;;;;;;28.63;6.80;;;;;;;7.41;100.00;101167.44;10374417;28;20032;-73
2022/02/21 18:44:40;;;;;;;20.10;6.63;;;;;;;7.36;100.00;101180.56;10373614;28;20050;-74
2022/02/21 18:49:41;;;;;;;19.48;5.90;;;;;;;7.21;100.00;101196.53;10374398;28;20238;-74
2022/02/21 18:54:41;;;;;;;23.23;6.30;;;;;;;7.16;100.00;101193.53;10372830;28;20045;-74
2022/02/21 18:59:42;;;;;;;25.95;7.38;;;;;;;6.95;100.00;101218.25;10374312;28;20046;-73
2022/02/21 19:04:42;;;;;;;35.88;8.35;;;;;;;6.72;100.00;101218.88;10373918;28;20065;-73
2022/02/21 19:09:43;;;;;;;23.52;8.20;;;;;;;6.57;100.00;101236.66;10374288;28;20030;-74
2022/02/21 19:14:43;;;;;;;47.10;10.73;;;;;;;6.49;100.00;101269.75;10373945;28;20069;-74
2022/02/21 19:19:44;;;;;;;40.42;7.20;;;;;;;6.42;100.00;101286.72;10374396;28;20041;-74
2022/02/21 19:24:44;;;;;;;26.38;6.88;;;;;;;6.31;100.00;101284.28;10374085;28;20049;-72
2022/02/21 19:29:45;;;;;;;28.08;6.70;;;;;;;6.28;100.00;101296.22;10381623;28;20401;-74
2022/02/21 19:34:45;;;;;;;59.40;12.52;;;;;;;6.19;100.00;101316.84;10382828;28;20038;-74
2022/02/21 19:39:45;;;;;;;23.73;7.72;;;;;;;6.16;100.00;101336.00;10382360;28;20038;-75
2022/02/21 19:44:46;;;;;;;30.35;7.82;;;;;;;6.19;100.00;101340.19;10381896;28;20061;-74
2022/02/21 19:49:46;;;;;;;33.78;9.27;;;;;;;6.12;100.00;101364.19;10382094;28;20042;-74
2022/02/21 19:54:47;;;;;;;36.63;8.50;;;;;;;6.10;100.00;101374.28;10380838;28;20068;-75
2022/02/21 19:59:47;;;;;;;35.90;11.30;;;;;;;6.20;100.00;101398.38;10380088;28;20048;-76
2022/02/21 20:04:48;;;;;;;37.72;8.52;;;;;;;6.28;100.00;101425.31;10379834;28;20044;-74
2022/02/21 20:09:48;;;;;;;40.83;10.20;;;;;;;6.44;100.00;101432.66;10378340;28;20044;-74
2022/02/21 20:14:52;;;;;;;42.92;11.40;;;;;;;6.29;100.00;101435.94;10381016;28;20025;-73
2022/02/21 20:19:52;;;;;;;37.03;9.30;;;;;;;6.19;100.00;101448.63;10381741;28;20034;-75
2022/02/21 20:24:53;;;;;;;41.45;9.70;;;;;;;6.05;100.00;101465.28;10383329;28;20034;-73
2022/02/21 20:29:53;;;;;;;31.15;10.25;;;;;;;6.07;100.00;101471.38;10382093;28;20394;-72
2022/02/21 20:34:53;;;;;;;44.90;10.55;;;;;;;6.01;100.00;101491.63;10381323;28;20057;-72
2022/02/21 20:39:54;;;;;;;39.47;11.23;;;;;;;5.96;100.00;101509.22;10380373;28;20042;-72
2022/02/21 20:44:54;;;;;;;50.30;9.98;;;;;;;5.90;100.00;101509.78;10381229;28;20050;-71
2022/02/21 20:49:55;;;;;;;48.40;12.27;;;;;;;5.88;100.00;101519.88;10379801;28;20117;-71
2022/02/21 20:54:55;;;;;;;28.20;10.65;;;;;;;5.86;100.00;101522.69;10378833;28;20496;-71
2022/02/21 20:59:55;;;;;;;57.30;12.27;;;;;;;5.85;100.00;101528.25;10378559;28;20042;-71
2022/02/21 21:04:56;;;;;;;50.55;13.32;;;;;;;5.80;100.00;101534.88;10379430;28;20061;-70
2022/02/21 21:09:56;;;;;;;47.00;11.52;;;;;;;5.76;100.00;101530.81;10379071;28;20382;-72
2022/02/21 21:14:56;;;;;;;41.95;10.60;;;;;;;5.72;100.00;101532.13;10378034;28;20041;-71
2022/02/21 21:19:57;;;;;;;43.78;12.18;;;;;;;5.70;100.00;101566.34;10378725;28;20461;-70
2022/02/21 21:24:57;;;;;;;25.02;10.70;;;;;;;5.65;100.00;101562.41;10377681;28;20034;-71
2022/02/21 21:29:58;;;;;;;40.15;9.88;;;;;;;5.60;100.00;101571.78;10377149;28;20026;-71
2022/02/21 21:34:58;;;;;;;27.50;8.27;;;;;;;5.60;100.00;101592.44;10377914;28;20382;-71
2022/02/21 21:39:58;;;;;;;31.80;9.00;;;;;;;5.62;100.00;101592.28;10377948;28;20069;-72
2022/02/21 21:44:59;;;;;;;34.95;11.30;;;;;;;5.55;100.00;101610.81;10378064;28;20160;-71
2022/02/21 21:49:59;;;;;;;33.90;8.65;;;;;;;5.50;100.00;101627.38;10376782;28;20042;-70
2022/02/21 21:55:00;;;;;;;59.33;12.35;;;;;;;5.48;100.00;101632.06;10376283;28;20030;-71
2022/02/21 22:00:00;;;;;;;67.80;11.98;;;;;;;5.47;100.00;101654.53;10376688;28;20486;-71
2022/02/21 22:05:00;;;;;;;49.55;12.63;;;;;;;5.42;100.00;101669.41;10358342;28;20041;-71
2022/02/21 22:10:01;;;;;;;48.20;11.20;;;;;;;5.36;100.00;101679.75;10377466;28;20045;-71
2022/02/21 22:15:01;;;;;;;44.65;13.10;;;;;;;5.39;100.00;101696.53;10376176;28;20040;-71
2022/02/21 22:20:02;;;;;;;27.23;10.38;;;;;;;5.39;100.00;101708.13;10374728;28;20038;-71
2022/02/21 22:25:03;;;;;;;42.22;13.07;;;;;;;5.41;100.00;101724.13;10375854;28;20042;-71
2022/02/21 22:30:04;;;;;;;23.58;8.85;;;;;;;5.51;100.00;101739.22;10375030;28;20060;-70
2022/02/21 22:35:05;;;;;;;27.08;8.15;;;;;;;5.65;100.00;101746.00;10375478;28;20069;-73
2022/02/21 22:40:06;;;;;;;36.05;10.90;;;;;;;5.88;100.00;101759.94;10375980;28;20095;-71
2022/02/21 22:45:07;;;;;;;36.42;10.57;;;;;;;5.99;100.00;101773.22;10373231;28;20045;-71
2022/02/21 22:50:08;;;;;;;29.55;9.18;;;;;;;6.06;100.00;101768.09;10375369;28;20045;-71
2022/02/21 22:55:08;;;;;;;31.95;9.88;;;;;;;6.05;100.00;101775.34;10374803;28;20057;-71
2022/02/21 23:00:09;;;;;;;20.48;7.10;;;;;;;6.00;100.00;101783.00;10358946;28;20367;-72
2022/02/21 23:05:11;;;;;;;36.20;8.32;;;;;;;6.03;100.00;101788.09;10357901;28;20026;-70
2022/02/21 23:10:11;;;;;;;30.52;8.75;;;;;;;6.08;100.00;101786.81;10374563;28;20046;-71